Time;durP1;ratioP1;P1;durP2;ratioP2;P2;SDS_P1;SDS_P2;PMS_P1;PMS_P2;Temp;Humidity;BMP_temperature;BMP_pressure;BME280_temperature;BME280_humidity;BME280_pressure;Samples;Min_cycle;Max_cycle;Signal;HPM_P1;HPM_P2
2024/02/18 00:02:07;;;;;;;67.47;13.17;;;;;;;;;;5057819;28;20452;-71
2024/02/18 00:04:34;;;;;;;69.80;13.60;;;;;;;;;;5074526;28;20455;-71
2024/02/18 00:07:02;;;;;;;68.70;12.97;;;;;;;;;;5077786;28;20459;-71
2024/02/18 00:09:30;;;;;;;66.77;12.60;;;;;;;;;;5077517;28;20460;-71
2024/02/18 00:11:58;;;;;;;69.10;13.80;;;;;;;;;;5077439;28;20447;-71
2024/02/18 00:14:25;;;;;;;68.00;13.90;;;;;;;;;;5077683;28;20474;-70
2024/02/18 00:16:52;;;;;;;66.90;12.80;;;;;;;;;;5077396;28;20990;-71
2024/02/18 00:19:19;;;;;;;66.73;12.70;;;;;;;;;;5077090;28;20449;-71
2024/02/18 00:21:47;;;;;;;66.70;13.67;;;;;;;;;;5077109;28;20527;-71
2024/02/18 00:24:15;;;;;;;68.37;13.63;;;;;;;;;;5077506;28;20455;-71
2024/02/18 00:26:43;;;;;;;68.57;14.07;;;;;;;;;;5076912;28;21017;-71
2024/02/18 00:29:11;;;;;;;67.80;13.43;;;;;;;;;;5077330;28;20464;-71
2024/02/18 00:31:38;;;;;;;72.07;13.97;;;;;;;;;;5077075;28;20828;-71
2024/02/18 00:34:05;;;;;;;69.00;14.93;;;;;;;;;;5077013;28;20459;-71
2024/02/18 00:36:32;;;;;;;66.13;12.47;;;;;;;;;;5076362;28;20481;-70
2024/02/18 00:38:59;;;;;;;68.30;13.57;;;;;;;;;;5076935;28;20523;-71
2024/02/18 00:41:26;;;;;;;66.50;12.67;;;;;;;;;;5076836;28;20484;-71
2024/02/18 00:43:54;;;;;;;67.80;13.57;;;;;;;;;;5068321;28;20485;-71
2024/02/18 00:46:22;;;;;;;67.00;12.53;;;;;;;;;;5076889;28;20846;-70
2024/02/18 00:48:49;;;;;;;69.50;13.97;;;;;;;;;;5076559;28;20552;-70
2024/02/18 00:51:16;;;;;;;70.60;14.70;;;;;;;;;;5077017;28;20535;-70
2024/02/18 00:53:43;;;;;;;66.87;12.87;;;;;;;;;;5074429;28;20528;-70
2024/02/18 00:56:10;;;;;;;66.10;12.87;;;;;;;;;;5057291;28;20478;-70
2024/02/18 00:58:37;;;;;;;68.17;13.17;;;;;;;;;;5057245;28;20445;-70
2024/02/18 01:01:07;;;;;;;66.57;12.27;;;;;;;;;;5069197;28;20484;-71
2024/02/18 01:03:35;;;;;;;66.77;13.20;;;;;;;;;;5076377;28;20445;-70
2024/02/18 01:06:03;;;;;;;68.90;12.97;;;;;;;;;;5077251;28;20547;-71
2024/02/18 01:08:30;;;;;;;64.40;12.17;;;;;;;;;;5076951;28;20449;-70
2024/02/18 01:10:58;;;;;;;66.87;12.07;;;;;;;;;;5077288;28;20447;-70
2024/02/18 01:13:25;;;;;;;65.63;11.97;;;;;;;;;;5077081;28;20518;-70
2024/02/18 01:15:52;;;;;;;66.37;12.40;;;;;;;;;;5076859;28;21034;-70
2024/02/18 01:18:21;;;;;;;66.80;12.33;;;;;;;;;;5076498;28;20460;-70
2024/02/18 01:20:48;;;;;;;74.03;13.00;;;;;;;;;;5075913;28;20603;-71
2024/02/18 01:23:15;;;;;;;70.60;13.53;;;;;;;;;;5076125;28;20897;-71
2024/02/18 01:25:42;;;;;;;66.77;13.27;;;;;;;;;;5076391;28;20554;-71
2024/02/18 01:28:09;;;;;;;66.07;12.90;;;;;;;;;;5076281;28;21056;-71
2024/02/18 01:30:36;;;;;;;66.80;13.00;;;;;;;;;;5076208;28;20528;-71
2024/02/18 01:33:03;;;;;;;67.27;13.00;;;;;;;;;;5075816;28;20527;-71
2024/02/18 01:35:32;;;;;;;65.77;13.10;;;;;;;;;;5076747;28;20577;-71
2024/02/18 01:37:59;;;;;;;67.33;12.90;;;;;;;;;;5076433;28;20466;-71
2024/02/18 01:40:26;;;;;;;66.47;12.10;;;;;;;;;;5075945;28;20855;-70
2024/02/18 01:42:53;;;;;;;66.07;12.83;;;;;;;;;;5076153;28;20544;-71
2024/02/18 01:45:20;;;;;;;66.97;13.27;;;;;;;;;;5075521;28;20839;-71
2024/02/18 01:47:48;;;;;;;66.60;13.10;;;;;;;;;;5075801;28;20447;-71
2024/02/18 01:50:15;;;;;;;68.20;12.83;;;;;;;;;;5076468;28;20458;-71
2024/02/18 01:52:45;;;;;;;66.60;13.10;;;;;;;;;;5075568;28;20825;-71
2024/02/18 01:55:13;;;;;;;67.30;12.07;;;;;;;;;;5076238;28;21021;-71
2024/02/18 01:57:42;;;;;;;67.10;12.10;;;;;;;;;;5075649;28;20546;-71
2024/02/18 02:00:12;;;;;;;68.30;14.17;;;;;;;;;;5076147;28;20452;-70
2024/02/18 02:02:39;;;;;;;66.70;13.10;;;;;;;;;;5074097;28;20494;-69
2024/02/18 02:05:09;;;;;;;70.33;14.03;;;;;;;;;;5077233;28;20468;-70
2024/02/18 02:07:36;;;;;;;66.27;12.43;;;;;;;;;;5079408;28;20454;-70
2024/02/18 02:10:11;;;;;;;65.37;12.03;;;;;;;;;;5079367;28;20543;-71
2024/02/18 02:12:38;;;;;;;67.20;13.50;;;;;;;;;;5078992;28;20492;-69
2024/02/18 02:15:06;;;;;;;70.03;14.10;;;;;;;;;;5079315;28;20492;-70
2024/02/18 02:17:33;;;;;;;68.67;11.87;;;;;;;;;;5079278;28;20444;-70
2024/02/18 02:20:00;;;;;;;66.17;13.30;;;;;;;;;;5078792;28;20528;-70
2024/02/18 02:22:27;;;;;;;67.47;12.03;;;;;;;;;;5079067;28;20514;-69
2024/02/18 02:24:54;;;;;;;68.00;12.90;;;;;;;;;;5070116;28;20544;-70
2024/02/18 02:27:26;;;;;;;68.97;13.30;;;;;;;;;;5079265;28;20535;-70
2024/02/18 02:29:54;;;;;;;66.60;12.73;;;;;;;;;;5079135;28;20456;-70
2024/02/18 02:32:21;;;;;;;68.33;11.33;;;;;;;;;;5064448;28;20535;-70
2024/02/18 02:34:49;;;;;;;65.47;12.63;;;;;;;;;;5076540;28;20470;-70
2024/02/18 02:37:16;;;;;;;65.77;12.90;;;;;;;;;;5078359;28;20813;-70
2024/02/18 02:39:43;;;;;;;68.30;12.33;;;;;;;;;;5078282;28;21035;-70
2024/02/18 02:42:10;;;;;;;66.93;12.67;;;;;;;;;;5078238;28;20493;-70
2024/02/18 02:44:37;;;;;;;64.83;12.07;;;;;;;;;;5077821;28;20471;-70
2024/02/18 02:47:06;;;;;;;70.17;13.10;;;;;;;;;;5074633;28;20441;-70
2024/02/18 02:49:33;;;;;;;66.27;12.00;;;;;;;;;;5057592;28;20460;-69
2024/02/18 02:52:00;;;;;;;67.90;13.10;;;;;;;;;;5066728;28;20437;-70
2024/02/18 02:54:27;;;;;;;65.83;12.40;;;;;;;;;;5058537;28;20451;-69
2024/02/18 02:56:54;;;;;;;66.27;12.40;;;;;;;;;;5057575;28;20494;-70
2024/02/18 02:59:21;;;;;;;65.43;11.33;;;;;;;;;;5058100;28;20445;-70
2024/02/18 03:01:48;;;;;;;65.93;12.03;;;;;;;;;;5057879;28;20491;-70
2024/02/18 03:04:17;;;;;;;67.90;13.90;;;;;;;;;;5062359;28;20445;-70
2024/02/18 03:06:44;;;;;;;66.87;12.97;;;;;;;;;;5077893;28;20471;-70
2024/02/18 03:09:12;;;;;;;66.77;11.93;;;;;;;;;;5077686;28;20456;-70
2024/02/18 03:11:39;;;;;;;64.50;11.00;;;;;;;;;;5077463;28;20993;-69
2024/02/18 03:14:06;;;;;;;64.90;11.10;;;;;;;;;;5077558;28;20527;-70
2024/02/18 03:16:33;;;;;;;63.67;11.10;;;;;;;;;;5076952;28;20491;-70
2024/02/18 03:19:00;;;;;;;66.50;11.93;;;;;;;;;;5078331;28;20538;-70
2024/02/18 03:21:29;;;;;;;66.47;12.33;;;;;;;;;;5077800;28;20572;-70
2024/02/18 03:23:56;;;;;;;68.57;12.00;;;;;;;;;;5077201;28;20548;-70
2024/02/18 03:26:25;;;;;;;63.93;11.47;;;;;;;;;;5077439;28;20560;-70
2024/02/18 03:28:53;;;;;;;66.53;11.20;;;;;;;;;;5077481;28;20492;-70
2024/02/18 03:31:21;;;;;;;64.27;11.70;;;;;;;;;;5077612;28;20444;-70
2024/02/18 03:33:48;;;;;;;66.17;11.53;;;;;;;;;;5076393;28;20487;-70
2024/02/18 03:36:15;;;;;;;64.60;10.20;;;;;;;;;;5071644;28;20507;-70
2024/02/18 03:38:44;;;;;;;65.50;9.77;;;;;;;;;;5056236;28;20458;-70
2024/02/18 03:41:11;;;;;;;64.40;11.40;;;;;;;;;;5056071;28;20495;-70
2024/02/18 03:43:39;;;;;;;64.77;11.63;;;;;;;;;;5056061;28;20453;-70
2024/02/18 03:46:07;;;;;;;64.13;10.70;;;;;;;;;;5055961;28;20480;-70
2024/02/18 03:48:34;;;;;;;64.67;11.83;;;;;;;;;;5071625;28;20464;-70
2024/02/18 03:51:01;;;;;;;65.83;11.27;;;;;;;;;;5075523;28;20449;-70
2024/02/18 03:53:28;;;;;;;65.57;11.10;;;;;;;;;;5075119;28;20538;-70
2024/02/18 03:55:56;;;;;;;66.87;11.50;;;;;;;;;;5075947;28;20905;-70
2024/02/18 03:58:24;;;;;;;65.53;11.30;;;;;;;;;;5075441;28;20531;-70
2024/02/18 04:00:51;;;;;;;64.47;11.30;;;;;;;;;;5075695;28;20448;-70
2024/02/18 04:03:18;;;;;;;66.63;11.70;;;;;;;;;;5074893;28;20539;-70
2024/02/18 04:05:45;;;;;;;65.10;11.07;;;;;;;;;;5075123;28;20931;-70
2024/02/18 04:08:12;;;;;;;65.77;12.20;;;;;;;;;;5074520;28;20462;-70
2024/02/18 04:10:39;;;;;;;68.50;11.10;;;;;;;;;;5074444;28;20451;-70
2024/02/18 04:13:08;;;;;;;67.30;10.90;;;;;;;;;;5074142;28;20540;-70
2024/02/18 04:15:35;;;;;;;68.30;11.10;;;;;;;;;;5074364;28;20533;-70
2024/02/18 04:18:02;;;;;;;67.77;11.40;;;;;;;;;;5074054;28;20447;-70
2024/02/18 04:20:29;;;;;;;63.43;10.40;;;;;;;;;;5073914;28;20458;-70
2024/02/18 04:22:56;;;;;;;65.80;11.57;;;;;;;;;;5073520;28;20488;-70
2024/02/18 04:25:23;;;;;;;64.93;11.57;;;;;;;;;;5074031;28;20478;-70
2024/02/18 04:27:51;;;;;;;65.60;11.67;;;;;;;;;;5073813;28;20448;-70
2024/02/18 04:30:19;;;;;;;69.13;12.60;;;;;;;;;;5069202;28;20456;-70
2024/02/18 04:32:46;;;;;;;64.87;11.23;;;;;;;;;;5053529;28;20468;-70
2024/02/18 04:35:13;;;;;;;65.77;11.60;;;;;;;;;;5053701;28;20479;-70
2024/02/18 04:37:40;;;;;;;66.83;10.97;;;;;;;;;;5053273;28;20451;-70
2024/02/18 04:40:08;;;;;;;65.50;12.27;;;;;;;;;;5053479;28;20823;-70
2024/02/18 04:42:35;;;;;;;67.90;11.43;;;;;;;;;;5060213;28;20490;-70
2024/02/18 04:45:02;;;;;;;66.07;11.47;;;;;;;;;;5073065;28;20464;-70
2024/02/18 04:47:31;;;;;;;65.97;10.63;;;;;;;;;;5072771;28;20814;-70
2024/02/18 04:50:03;;;;;;;66.47;11.37;;;;;;;;;;5072951;28;20939;-70
2024/02/18 04:52:30;;;;;;;65.97;12.07;;;;;;;;;;5073449;28;20533;-70
2024/02/18 04:54:57;;;;;;;66.53;11.60;;;;;;;;;;5073364;28;20474;-70
2024/02/18 04:57:25;;;;;;;64.90;11.53;;;;;;;;;;5073286;28;20451;-70
2024/02/18 04:59:52;;;;;;;65.33;10.73;;;;;;;;;;5073027;28;20444;-70
2024/02/18 05:02:20;;;;;;;63.30;10.30;;;;;;;;;;5072464;28;20491;-70
2024/02/18 05:04:48;;;;;;;69.73;12.00;;;;;;;;;;5072842;28;20448;-70
2024/02/18 05:07:16;;;;;;;65.60;10.33;;;;;;;;;;5072633;28;20454;-70
2024/02/18 05:09:43;;;;;;;70.83;12.10;;;;;;;;;;5072987;28;20450;-70
2024/02/18 05:12:10;;;;;;;65.37;11.97;;;;;;;;;;5072416;28;20444;-70
2024/02/18 05:14:38;;;;;;;66.97;11.00;;;;;;;;;;5072126;28;20535;-70
2024/02/18 05:17:05;;;;;;;66.77;12.57;;;;;;;;;;5072211;28;20447;-70
2024/02/18 05:19:32;;;;;;;64.67;10.40;;;;;;;;;;5072523;28;20455;-70
2024/02/18 05:22:00;;;;;;;64.77;11.03;;;;;;;;;;5072495;28;20487;-70
2024/02/18 05:24:27;;;;;;;68.70;11.93;;;;;;;;;;5072455;28;20465;-70
2024/02/18 05:26:55;;;;;;;64.80;11.50;;;;;;;;;;5072014;28;20856;-70
2024/02/18 05:29:22;;;;;;;65.30;11.60;;;;;;;;;;5072189;28;20443;-70
2024/02/18 05:31:50;;;;;;;65.10;11.93;;;;;;;;;;5072134;28;20454;-70
2024/02/18 05:34:17;;;;;;;64.73;10.90;;;;;;;;;;5072172;28;20550;-70
2024/02/18 05:36:44;;;;;;;63.70;10.93;;;;;;;;;;5072014;28;20468;-70
2024/02/18 05:39:13;;;;;;;63.33;10.20;;;;;;;;;;5071506;28;20965;-70
2024/02/18 05:41:41;;;;;;;65.73;11.73;;;;;;;;;;5072468;28;20570;-70
2024/02/18 05:44:09;;;;;;;64.37;10.77;;;;;;;;;;5061755;28;20925;-70
2024/02/18 05:46:36;;;;;;;64.93;11.10;;;;;;;;;;5057817;28;20973;-70
2024/02/18 05:49:04;;;;;;;64.40;10.90;;;;;;;;;;5077116;28;20455;-71
2024/02/18 05:51:32;;;;;;;67.13;11.40;;;;;;;;;;5077638;28;20883;-70
2024/02/18 05:53:59;;;;;;;64.67;11.70;;;;;;;;;;5078233;28;20478;-70
2024/02/18 05:56:28;;;;;;;65.60;12.50;;;;;;;;;;5077494;28;20479;-70
2024/02/18 05:58:55;;;;;;;66.90;12.20;;;;;;;;;;5077284;28;20955;-70
2024/02/18 06:01:22;;;;;;;66.20;11.00;;;;;;;;;;5076041;28;20502;-70
2024/02/18 06:03:49;;;;;;;65.50;10.33;;;;;;;;;;5076340;28;20443;-71
2024/02/18 06:06:16;;;;;;;64.83;10.63;;;;;;;;;;5076375;28;20512;-71
2024/02/18 06:08:43;;;;;;;65.10;12.17;;;;;;;;;;5076397;28;20452;-70
2024/02/18 06:11:11;;;;;;;64.77;11.50;;;;;;;;;;5076617;28;20443;-71
2024/02/18 06:13:41;;;;;;;66.17;12.17;;;;;;;;;;5074255;28;20436;-69
2024/02/18 06:16:08;;;;;;;71.33;12.20;;;;;;;;;;5071593;28;20475;-70
2024/02/18 06:18:35;;;;;;;67.75;11.63;;;;;;;;;;5072162;28;20826;-70
2024/02/18 06:21:02;;;;;;;65.03;11.20;;;;;;;;;;5071737;28;20207;-70
2024/02/18 06:23:29;;;;;;;66.50;11.77;;;;;;;;;;5071864;28;20862;-70
2024/02/18 06:25:58;;;;;;;65.03;11.67;;;;;;;;;;5072474;28;20843;-70
2024/02/18 06:28:31;;;;;;;69.17;12.77;;;;;;;;;;5072126;28;20487;-70
2024/02/18 06:31:00;;;;;;;67.73;12.20;;;;;;;;;;5072880;28;20456;-70
2024/02/18 06:33:27;;;;;;;70.63;12.37;;;;;;;;;;5071871;28;20444;-70
2024/02/18 06:35:55;;;;;;;68.20;14.03;;;;;;;;;;5071892;28;20476;-70
2024/02/18 06:38:22;;;;;;;76.97;15.77;;;;;;;;;;5072219;28;20452;-70
2024/02/18 06:40:49;;;;;;;88.73;13.87;;;;;;;;;;5072488;28;20452;-70
2024/02/18 06:43:16;;;;;;;77.67;13.50;;;;;;;;;;5072833;28;20490;-70
2024/02/18 06:45:43;;;;;;;93.77;16.13;;;;;;;;;;5072642;28;20560;-70
2024/02/18 06:48:11;;;;;;;79.15;15.88;;;;;;;;;;5069987;28;20842;-70
2024/02/18 06:50:38;;;;;;;75.70;14.07;;;;;;;;;;5054585;28;20206;-70
2024/02/18 06:53:06;;;;;;;71.83;13.67;;;;;;;;;;5056075;28;20830;-70
2024/02/18 06:55:33;;;;;;;73.30;13.38;;;;;;;;;;5055218;28;20559;-70
2024/02/18 06:58:00;;;;;;;86.80;15.23;;;;;;;;;;5055092;28;20215;-70
2024/02/18 07:00:28;;;;;;;72.10;15.03;;;;;;;;;;5059688;28;20479;-70
2024/02/18 07:02:55;;;;;;;73.50;16.10;;;;;;;;;;5074193;28;20531;-70
2024/02/18 07:05:23;;;;;;;73.87;15.03;;;;;;;;;;5074592;28;20473;-70
2024/02/18 07:07:50;;;;;;;69.50;14.60;;;;;;;;;;5075254;28;20534;-70
2024/02/18 07:10:17;;;;;;;72.03;15.30;;;;;;;;;;5075504;28;20932;-70
2024/02/18 07:12:44;;;;;;;71.83;13.67;;;;;;;;;;5074700;28;20442;-70
2024/02/18 07:15:12;;;;;;;67.67;13.17;;;;;;;;;;5074727;28;20475;-70
2024/02/18 07:17:39;;;;;;;79.17;16.13;;;;;;;;;;5074586;28;20838;-70
2024/02/18 07:20:07;;;;;;;72.83;14.37;;;;;;;;;;5074443;28;20458;-70
2024/02/18 07:22:35;;;;;;;74.90;13.90;;;;;;;;;;5074226;28;20488;-70
2024/02/18 07:25:02;;;;;;;78.33;14.30;;;;;;;;;;5074488;28;20493;-70
2024/02/18 07:27:29;;;;;;;75.80;15.17;;;;;;;;;;5074661;28;20451;-70
2024/02/18 07:29:56;;;;;;;68.93;14.23;;;;;;;;;;5074524;28;20450;-70
2024/02/18 07:32:24;;;;;;;71.00;13.53;;;;;;;;;;5074753;28;20769;-70
2024/02/18 07:34:51;;;;;;;68.53;14.30;;;;;;;;;;5075716;28;20481;-70
2024/02/18 07:37:18;;;;;;;68.67;14.93;;;;;;;;;;5076811;28;20901;-70
2024/02/18 07:39:47;;;;;;;69.50;14.97;;;;;;;;;;5076487;28;20453;-70
2024/02/18 07:42:14;;;;;;;72.30;17.20;;;;;;;;;;5076286;28;20446;-71
2024/02/18 07:44:44;;;;;;;70.97;14.93;;;;;;;;;;5061257;28;20824;-70
2024/02/18 07:47:11;;;;;;;71.77;15.60;;;;;;;;;;5054692;28;20449;-70
2024/02/18 07:49:38;;;;;;;72.40;15.70;;;;;;;;;;5054750;28;20456;-70
2024/02/18 07:52:06;;;;;;;71.30;16.23;;;;;;;;;;5064388;28;20444;-70
2024/02/18 07:54:33;;;;;;;70.30;14.80;;;;;;;;;;5074967;28;21078;-70
2024/02/18 07:57:01;;;;;;;73.30;16.53;;;;;;;;;;5074431;28;20446;-70
2024/02/18 07:59:28;;;;;;;69.80;15.37;;;;;;;;;;5055084;28;20452;-70
2024/02/18 08:01:56;;;;;;;71.07;15.80;;;;;;;;;;5055376;28;20454;-70
2024/02/18 08:04:23;;;;;;;70.50;14.33;;;;;;;;;;5056748;28;20869;-70
2024/02/18 08:06:50;;;;;;;68.33;15.13;;;;;;;;;;5056194;28;20479;-71
2024/02/18 08:09:17;;;;;;;73.70;17.17;;;;;;;;;;5056505;28;20536;-70
2024/02/18 08:11:45;;;;;;;72.87;17.20;;;;;;;;;;5057322;28;20453;-70
2024/02/18 08:14:13;;;;;;;71.27;16.87;;;;;;;;;;5058533;28;20453;-70
2024/02/18 08:16:41;;;;;;;70.77;15.70;;;;;;;;;;5058284;28;20469;-70
2024/02/18 08:19:08;;;;;;;71.90;16.47;;;;;;;;;;5058026;28;20449;-71
2024/02/18 08:21:35;;;;;;;69.00;14.93;;;;;;;;;;5058493;28;20447;-70
2024/02/18 08:24:02;;;;;;;70.00;16.10;;;;;;;;;;5057919;28;20493;-71
2024/02/18 08:26:30;;;;;;;72.07;15.00;;;;;;;;;;5058494;28;20532;-71
2024/02/18 08:28:57;;;;;;;68.20;15.10;;;;;;;;;;5058061;28;20460;-70
2024/02/18 08:31:25;;;;;;;70.90;16.03;;;;;;;;;;5058822;28;20462;-70
2024/02/18 08:33:52;;;;;;;69.27;15.80;;;;;;;;;;5057828;28;20459;-70
2024/02/18 08:36:20;;;;;;;68.43;14.60;;;;;;;;;;5058295;28;20844;-70
2024/02/18 08:38:49;;;;;;;68.40;14.00;;;;;;;;;;5056391;28;20457;-70
2024/02/18 08:41:16;;;;;;;69.00;14.57;;;;;;;;;;5059765;28;20463;-71
2024/02/18 08:43:43;;;;;;;67.00;12.83;;;;;;;;;;5076706;28;20933;-70
2024/02/18 08:46:12;;;;;;;68.30;13.67;;;;;;;;;;5077143;28;20516;-70
2024/02/18 08:48:40;;;;;;;68.20;14.30;;;;;;;;;;5076764;28;20553;-71
2024/02/18 08:51:08;;;;;;;68.30;14.03;;;;;;;;;;5076617;28;20448;-70
2024/02/18 08:53:36;;;;;;;67.77;13.40;;;;;;;;;;5076701;28;20457;-71
2024/02/18 08:56:04;;;;;;;64.83;12.07;;;;;;;;;;5077113;28;20472;-71
2024/02/18 08:58:32;;;;;;;67.13;12.80;;;;;;;;;;5077016;28;20453;-70
2024/02/18 09:00:59;;;;;;;66.00;12.30;;;;;;;;;;5076733;28;20445;-71
2024/02/18 09:03:27;;;;;;;67.27;13.20;;;;;;;;;;5075995;28;20478;-71
2024/02/18 09:05:55;;;;;;;67.30;10.87;;;;;;;;;;5076392;28;21058;-71
2024/02/18 09:08:22;;;;;;;66.50;12.13;;;;;;;;;;5075823;28;20450;-71
2024/02/18 09:10:49;;;;;;;68.23;12.37;;;;;;;;;;5076272;28;20531;-70
2024/02/18 09:13:16;;;;;;;66.63;12.33;;;;;;;;;;5074715;28;20521;-70
2024/02/18 09:15:44;;;;;;;65.90;12.43;;;;;;;;;;5075841;28;20475;-71
2024/02/18 09:18:11;;;;;;;64.80;11.67;;;;;;;;;;5056909;28;20455;-70
2024/02/18 09:20:38;;;;;;;63.77;10.63;;;;;;;;;;5055663;28;20473;-70
2024/02/18 09:23:07;;;;;;;63.80;9.87;;;;;;;;;;5054820;28;20494;-71
2024/02/18 09:25:34;;;;;;;62.80;11.10;;;;;;;;;;5054743;28;20466;-71
2024/02/18 09:28:01;;;;;;;66.33;10.07;;;;;;;;;;5054507;28;20537;-71
2024/02/18 09:30:28;;;;;;;64.90;10.70;;;;;;;;;;5056241;28;20456;-71
2024/02/18 09:32:55;;;;;;;63.07;9.90;;;;;;;;;;5055408;28;20935;-71
2024/02/18 09:35:22;;;;;;;65.30;10.67;;;;;;;;;;5055819;28;20478;-71
2024/02/18 09:37:49;;;;;;;63.63;10.30;;;;;;;;;;5054611;28;20547;-71
2024/02/18 09:40:18;;;;;;;63.10;9.53;;;;;;;;;;5054717;28;20452;-71
2024/02/18 09:42:46;;;;;;;63.10;9.20;;;;;;;;;;5053676;28;20451;-71
2024/02/18 09:45:14;;;;;;;63.07;10.10;;;;;;;;;;5052933;28;20467;-71
2024/02/18 09:47:42;;;;;;;63.30;10.13;;;;;;;;;;5053529;28;20455;-71
2024/02/18 09:50:10;;;;;;;63.17;9.27;;;;;;;;;;5070890;28;20448;-71
2024/02/18 09:52:39;;;;;;;64.67;11.00;;;;;;;;;;5072618;28;20459;-70
2024/02/18 09:55:07;;;;;;;66.33;10.40;;;;;;;;;;5073031;28;20472;-71
2024/02/18 09:57:36;;;;;;;63.80;10.40;;;;;;;;;;5073066;28;20451;-71
2024/02/18 10:00:03;;;;;;;65.53;10.17;;;;;;;;;;5072064;28;20501;-70
2024/02/18 10:02:31;;;;;;;62.07;9.10;;;;;;;;;;5072514;28;20933;-71
2024/02/18 10:04:58;;;;;;;63.40;10.17;;;;;;;;;;5072251;28;20579;-71
2024/02/18 10:07:25;;;;;;;62.87;9.67;;;;;;;;;;5072056;28;20448;-70
2024/02/18 10:09:52;;;;;;;61.30;8.90;;;;;;;;;;5072424;28;20448;-71
2024/02/18 10:12:20;;;;;;;64.03;9.60;;;;;;;;;;5072124;28;20873;-71
2024/02/18 10:14:58;;;;;;;63.80;10.00;;;;;;;;;;5072235;28;20534;-70
2024/02/18 10:17:26;;;;;;;63.67;8.80;;;;;;;;;;5072045;28;20444;-71
2024/02/18 10:19:53;;;;;;;63.73;9.67;;;;;;;;;;5072376;28;20802;-71
2024/02/18 10:22:23;;;;;;;65.63;9.73;;;;;;;;;;5071972;28;20452;-71
2024/02/18 10:24:50;;;;;;;61.17;9.47;;;;;;;;;;5073033;28;20487;-71
2024/02/18 10:27:18;;;;;;;60.47;8.13;;;;;;;;;;5076395;28;20439;-71
2024/02/18 10:29:46;;;;;;;61.77;8.80;;;;;;;;;;5076841;28;21134;-71
2024/02/18 10:32:15;;;;;;;62.40;9.00;;;;;;;;;;5075818;28;20951;-71
2024/02/18 10:34:42;;;;;;;64.80;9.87;;;;;;;;;;5076061;28;21011;-71
2024/02/18 10:37:10;;;;;;;64.17;9.40;;;;;;;;;;5076160;28;20987;-71
2024/02/18 10:39:40;;;;;;;61.57;8.27;;;;;;;;;;5076188;28;20956;-71
2024/02/18 10:42:09;;;;;;;63.30;8.50;;;;;;;;;;5076621;28;20837;-71
2024/02/18 10:44:37;;;;;;;61.40;8.70;;;;;;;;;;5076362;28;20491;-71
2024/02/18 10:47:05;;;;;;;61.00;7.80;;;;;;;;;;5076336;28;20444;-71
2024/02/18 10:49:34;;;;;;;61.77;7.80;;;;;;;;;;5076399;28;20448;-71
2024/02/18 10:52:09;;;;;;;60.70;7.30;;;;;;;;;;5075106;28;20454;-71
2024/02/18 10:54:39;;;;;;;60.83;7.70;;;;;;;;;;5075528;28;20927;-68
2024/02/18 10:57:06;;;;;;;60.87;7.60;;;;;;;;;;5074527;28;20832;-68
2024/02/18 10:59:37;;;;;;;60.30;7.10;;;;;;;;;;5076028;28;20450;-71
2024/02/18 11:02:07;;;;;;;61.03;6.07;;;;;;;;;;5076392;28;20450;-69
2024/02/18 11:04:35;;;;;;;59.17;6.60;;;;;;;;;;5076003;28;20480;-71
2024/02/18 11:07:03;;;;;;;66.60;7.80;;;;;;;;;;5076718;28;20452;-70
2024/02/18 11:09:31;;;;;;;61.90;7.33;;;;;;;;;;5076417;28;20450;-71
2024/02/18 11:12:02;;;;;;;60.03;6.87;;;;;;;;;;5076333;28;20443;-71
2024/02/18 11:14:29;;;;;;;60.47;6.80;;;;;;;;;;5076319;28;20811;-71
2024/02/18 11:16:57;;;;;;;61.13;7.13;;;;;;;;;;5076101;28;20447;-70
2024/02/18 11:19:25;;;;;;;60.67;6.23;;;;;;;;;;5075044;28;20451;-71
2024/02/18 11:21:54;;;;;;;58.27;5.87;;;;;;;;;;5074632;28;20454;-71
2024/02/18 11:24:24;;;;;;;60.93;6.60;;;;;;;;;;5074960;28;20586;-71
2024/02/18 11:26:51;;;;;;;58.60;6.57;;;;;;;;;;5074877;28;20464;-70
2024/02/18 11:29:18;;;;;;;60.37;6.20;;;;;;;;;;5075530;28;20897;-71
2024/02/18 11:31:46;;;;;;;59.70;6.10;;;;;;;;;;5074982;28;20908;-70
2024/02/18 11:34:13;;;;;;;61.93;6.50;;;;;;;;;;5075281;28;20459;-71
2024/02/18 11:36:40;;;;;;;60.77;5.80;;;;;;;;;;5075126;28;20463;-71
2024/02/18 11:39:09;;;;;;;59.23;5.63;;;;;;;;;;5076641;28;20924;-71
2024/02/18 11:41:36;;;;;;;58.90;5.63;;;;;;;;;;5076679;28;20452;-71
2024/02/18 11:44:09;;;;;;;60.40;5.80;;;;;;;;;;5076413;28;20856;-71
2024/02/18 11:46:39;;;;;;;60.33;6.87;;;;;;;;;;5076458;28;20459;-71
2024/02/18 11:49:06;;;;;;;59.57;5.90;;;;;;;;;;5076016;28;20451;-71
2024/02/18 11:51:34;;;;;;;59.70;5.50;;;;;;;;;;5075707;28;20440;-71
2024/02/18 11:54:01;;;;;;;61.20;6.50;;;;;;;;;;5075449;28;20978;-71
2024/02/18 11:56:28;;;;;;;58.20;5.57;;;;;;;;;;5075290;28;20456;-71
2024/02/18 11:58:55;;;;;;;59.40;5.40;;;;;;;;;;5075890;28;20483;-71
2024/02/18 12:01:25;;;;;;;58.17;5.20;;;;;;;;;;5075351;28;20446;-71
2024/02/18 12:03:52;;;;;;;59.57;5.20;;;;;;;;;;5074933;28;20487;-71
2024/02/18 12:06:19;;;;;;;57.60;4.90;;;;;;;;;;5074924;28;20496;-72
2024/02/18 12:08:48;;;;;;;58.50;5.37;;;;;;;;;;5075217;28;20486;-71
2024/02/18 12:11:16;;;;;;;58.47;5.20;;;;;;;;;;5074785;28;20452;-71
2024/02/18 12:13:45;;;;;;;61.47;5.47;;;;;;;;;;5075135;28;20462;-71
2024/02/18 12:16:12;;;;;;;59.87;5.47;;;;;;;;;;5074584;28;20984;-70
2024/02/18 12:18:39;;;;;;;59.80;5.60;;;;;;;;;;5075151;28;20814;-70
2024/02/18 12:21:07;;;;;;;58.10;5.00;;;;;;;;;;5074849;28;20442;-71
2024/02/18 12:23:40;;;;;;;58.80;5.10;;;;;;;;;;5066679;28;20456;-71
2024/02/18 12:26:07;;;;;;;59.27;5.47;;;;;;;;;;5075413;28;20480;-71
2024/02/18 12:28:34;;;;;;;57.87;4.93;;;;;;;;;;5074624;28;20448;-70
2024/02/18 12:31:03;;;;;;;58.30;5.47;;;;;;;;;;5074158;28;20450;-71
2024/02/18 12:33:31;;;;;;;58.40;5.53;;;;;;;;;;5074387;28;20826;-71
2024/02/18 12:35:58;;;;;;;61.87;5.03;;;;;;;;;;5074828;28;20468;-71
2024/02/18 12:38:25;;;;;;;59.27;4.97;;;;;;;;;;5074348;28;20920;-71
2024/02/18 12:40:55;;;;;;;60.97;5.30;;;;;;;;;;5074522;28;20447;-71
2024/02/18 12:43:23;;;;;;;58.00;4.60;;;;;;;;;;5074216;28;20459;-70
2024/02/18 12:45:50;;;;;;;58.90;5.53;;;;;;;;;;5074617;28;21013;-71
2024/02/18 12:48:18;;;;;;;57.93;4.93;;;;;;;;;;5074084;28;20455;-72
2024/02/18 12:50:46;;;;;;;58.60;5.20;;;;;;;;;;5074592;28;20957;-70
2024/02/18 12:53:13;;;;;;;58.63;5.50;;;;;;;;;;5074179;28;20827;-70
2024/02/18 12:55:40;;;;;;;58.57;5.67;;;;;;;;;;5074495;28;20460;-70
2024/02/18 12:58:07;;;;;;;58.20;5.00;;;;;;;;;;5075210;28;20444;-70
2024/02/18 13:00:35;;;;;;;58.20;5.40;;;;;;;;;;5066796;28;20447;-71
2024/02/18 13:03:07;;;;;;;58.60;5.37;;;;;;;;;;5067014;28;20448;-70
2024/02/18 13:05:36;;;;;;;59.00;5.47;;;;;;;;;;5065858;28;20570;-70
2024/02/18 13:08:05;;;;;;;59.77;5.47;;;;;;;;;;5074404;28;20444;-70
2024/02/18 13:10:32;;;;;;;58.10;5.30;;;;;;;;;;5074337;28;20510;-70
2024/02/18 13:12:59;;;;;;;59.17;5.20;;;;;;;;;;5073876;28;20444;-71
2024/02/18 13:15:27;;;;;;;59.30;5.90;;;;;;;;;;5073967;28;20460;-71
2024/02/18 13:17:54;;;;;;;61.43;6.57;;;;;;;;;;5074018;28;20448;-71
2024/02/18 13:20:21;;;;;;;60.00;6.50;;;;;;;;;;5074921;28;20455;-70
2024/02/18 13:22:50;;;;;;;58.20;5.67;;;;;;;;;;5073402;28;20444;-71
2024/02/18 13:25:17;;;;;;;59.37;6.40;;;;;;;;;;5072878;28;21038;-70
2024/02/18 13:27:44;;;;;;;59.70;6.67;;;;;;;;;;5073170;28;20444;-71
2024/02/18 13:30:11;;;;;;;59.77;6.80;;;;;;;;;;5073266;28;20443;-71
2024/02/18 13:32:39;;;;;;;61.83;7.67;;;;;;;;;;5073440;28;20460;-71
2024/02/18 13:35:07;;;;;;;61.80;8.70;;;;;;;;;;5072585;28;20468;-71
2024/02/18 13:37:34;;;;;;;60.87;7.40;;;;;;;;;;5072531;28;20444;-71
2024/02/18 13:40:03;;;;;;;60.50;6.83;;;;;;;;;;5072798;28;20436;-71
2024/02/18 13:42:31;;;;;;;60.57;7.10;;;;;;;;;;5072355;28;20458;-71
2024/02/18 13:44:58;;;;;;;61.20;7.67;;;;;;;;;;5072310;28;20838;-71
2024/02/18 13:47:25;;;;;;;60.27;7.60;;;;;;;;;;5072626;28;20454;-71
2024/02/18 13:49:57;;;;;;;60.60;7.73;;;;;;;;;;5072620;28;20450;-70
2024/02/18 13:52:25;;;;;;;63.67;8.40;;;;;;;;;;5072079;28;20440;-70
2024/02/18 13:54:52;;;;;;;61.93;7.47;;;;;;;;;;5072284;28;20513;-71
2024/02/18 13:57:21;;;;;;;60.13;7.30;;;;;;;;;;5072349;28;20448;-70
2024/02/18 13:59:48;;;;;;;61.67;7.90;;;;;;;;;;5071834;28;20475;-70
2024/02/18 14:02:15;;;;;;;60.63;7.60;;;;;;;;;;5072590;28;20444;-71
2024/02/18 14:04:42;;;;;;;60.17;7.20;;;;;;;;;;5072095;28;20483;-71
2024/02/18 14:07:09;;;;;;;62.37;7.00;;;;;;;;;;5072171;28;20444;-70
2024/02/18 14:09:36;;;;;;;61.33;8.10;;;;;;;;;;5072244;28;20505;-70
2024/02/18 14:12:06;;;;;;;61.20;7.60;;;;;;;;;;5072051;28;20444;-70
2024/02/18 14:14:34;;;;;;;61.63;7.60;;;;;;;;;;5071994;28;20448;-71
2024/02/18 14:17:02;;;;;;;59.50;7.00;;;;;;;;;;5072112;28;20448;-70
2024/02/18 14:19:29;;;;;;;61.17;6.97;;;;;;;;;;5072129;28;20444;-70
2024/02/18 14:21:56;;;;;;;59.80;7.07;;;;;;;;;;5071956;28;20453;-70
2024/02/18 14:24:23;;;;;;;60.67;7.33;;;;;;;;;;5071956;28;20847;-71